Neillsville, Wisconsin
Current Conditions -  °F | °C
As of 1:21 PM on Friday 24 Oct 2014 (Local Time) from KMFI Reporting Station
Broken Clouds Broken Clouds  
Wind Chill: 52°   Ceiling: 500
Heat Index: 52°   Visibility: 10mi
Dew Point: 49°   Wind: 12mph
Humidity: 89%   Direction: 160°SSE
Pressure: 29.93"   Gusts: NA
Location:  44.56°N, 90.6°W
Report Text: KMFI 241821Z AUTO 16010KT 10SM BKN005 11/09 A2993 RMK AO2 T01110094
Loading
Personal Weather Stations






























Interactive Weather Map
Tropical Storm Tracking
New forecast layout! Learn more

10-Day Weather Forecast

Advertisements
Track Severe Weather on mobile